Terminal Aerodrome Forecast
Issued by NWS

Home | Current Version | Previous Version | Text Only | Print | Product List | Glossary On
Versions: 1 2 3 4 5 6 7 8 9 10 11 12
000
FTUS44 KEWX 290500
TAFSSF
TAF
KSSF 290523Z 2906/3006 18003KT P6SM SKC
     FM290900 18005KT 1SM BR SCT003 SCT100
      TEMPO 2911/2915 BKN003
     FM291700 14005KT P6SM SCT100
     FM292300 05012KT P6SM BKN100=

USA.gov is the U.S. government's official web portal to all federal, state and local government web resources and services.